createdAt,value
2018-08-11T00:01:05.886Z,63.10
2018-08-11T00:03:34.369Z,63.70
2018-08-11T00:06:02.873Z,64.60
2018-08-11T00:08:31.300Z,65.00
2018-08-11T00:13:42.777Z,65.90
2018-08-11T00:16:11.289Z,66.30
2018-08-11T00:18:39.735Z,66.10
2018-08-11T00:21:08.216Z,66.30
2018-08-11T00:23:36.662Z,66.30
2018-08-11T00:26:05.623Z,66.40
2018-08-11T00:28:34.033Z,66.90
2018-08-11T00:31:04.125Z,67.00
2018-08-11T00:33:33.472Z,67.10
2018-08-11T00:36:01.970Z,67.20
2018-08-11T00:38:30.403Z,67.00
2018-08-11T00:40:58.903Z,67.00
2018-08-11T00:43:27.324Z,66.60
2018-08-11T00:45:55.744Z,67.10
2018-08-11T00:48:24.141Z,66.80
2018-08-11T00:50:52.620Z,66.60
2018-08-11T00:53:21.010Z,66.80
2018-08-11T00:55:49.479Z,67.10
2018-08-11T00:58:17.930Z,67.10
2018-08-11T01:00:46.383Z,66.80
2018-08-11T01:03:14.831Z,66.40
2018-08-11T01:05:43.257Z,66.20
2018-08-11T01:08:19.344Z,66.10
2018-08-11T01:10:48.576Z,66.20
2018-08-11T01:13:16.962Z,65.90
2018-08-11T01:15:45.415Z,66.30
2018-08-11T01:18:13.847Z,66.20
2018-08-11T01:20:42.331Z,65.70
2018-08-11T01:23:10.776Z,65.40
2018-08-11T01:25:45.709Z,65.10
2018-08-11T01:28:14.145Z,64.80
2018-08-11T01:30:42.563Z,64.90
2018-08-11T01:33:10.974Z,65.40
2018-08-11T01:35:39.396Z,65.50
2018-08-11T01:38:07.863Z,65.90
2018-08-11T01:40:36.284Z,66.00
2018-08-11T01:43:04.660Z,65.90
2018-08-11T01:45:33.068Z,66.20
2018-08-11T01:48:01.511Z,66.20
2018-08-11T01:50:29.923Z,66.60
2018-08-11T01:52:58.354Z,66.10
2018-08-11T01:55:27.919Z,66.90
2018-08-11T01:57:56.390Z,66.30
2018-08-11T02:00:24.838Z,66.60
2018-08-11T02:02:53.209Z,66.50
2018-08-11T02:05:21.659Z,67.00
2018-08-11T02:07:50.047Z,66.50
2018-08-11T02:10:20.076Z,66.70
2018-08-11T02:12:48.838Z,67.10
2018-08-11T02:15:17.476Z,67.80
2018-08-11T02:17:45.940Z,67.70
2018-08-11T02:20:16.966Z,67.20
2018-08-11T02:22:46.536Z,67.30
2018-08-11T02:25:15.003Z,67.60
2018-08-11T02:27:43.410Z,67.40
2018-08-11T02:30:13.987Z,67.10
2018-08-11T02:32:42.585Z,68.10
2018-08-11T02:35:11.930Z,67.40
2018-08-11T02:37:40.577Z,66.90
2018-08-11T02:40:10.576Z,67.00
2018-08-11T02:42:39.017Z,66.70
2018-08-11T02:45:08.706Z,66.90
2018-08-11T02:47:37.093Z,67.00
2018-08-11T02:50:07.320Z,66.80
2018-08-11T02:52:38.021Z,67.30
2018-08-11T02:55:07.067Z,66.80
2018-08-11T02:57:36.846Z,66.60
2018-08-11T03:00:08.968Z,66.70
2018-08-11T03:02:37.677Z,66.60
2018-08-11T03:05:05.979Z,66.60
2018-08-11T03:07:36.100Z,66.50
2018-08-11T03:10:05.432Z,66.60
2018-08-11T03:12:33.841Z,66.70
2018-08-11T03:15:02.286Z,66.90
2018-08-11T03:17:30.732Z,66.90
2018-08-11T03:19:59.155Z,67.10
2018-08-11T03:22:27.574Z,67.10
2018-08-11T03:24:56.001Z,67.20
2018-08-11T03:27:24.375Z,66.90
2018-08-11T03:29:52.752Z,66.70
2018-08-11T03:32:21.149Z,66.90
2018-08-11T03:34:49.546Z,67.10
2018-08-11T03:37:18.787Z,67.20
2018-08-11T03:39:47.260Z,67.70
2018-08-11T03:42:15.677Z,68.00
2018-08-11T03:44:44.060Z,68.00
2018-08-11T03:47:12.460Z,68.50
2018-08-11T03:49:40.886Z,68.20
2018-08-11T03:52:09.320Z,68.10
2018-08-11T03:54:37.840Z,67.80
2018-08-11T03:57:06.406Z,67.80
2018-08-11T03:59:34.894Z,67.70
2018-08-11T04:02:03.456Z,67.60
2018-08-11T04:04:31.872Z,67.90
2018-08-11T04:07:00.349Z,67.90
2018-08-11T04:09:28.780Z,67.80
2018-08-11T04:11:57.245Z,67.90
2018-08-11T04:14:25.653Z,68.00
2018-08-11T04:16:54.047Z,68.10
2018-08-11T04:19:22.452Z,68.20
2018-08-11T04:21:50.843Z,68.60
2018-08-11T04:24:19.277Z,68.80
2018-08-11T04:26:48.560Z,69.30
2018-08-11T04:29:17.501Z,69.40
2018-08-11T04:31:46.009Z,69.50
2018-08-11T04:34:14.487Z,69.90
2018-08-11T04:36:44.379Z,69.90
2018-08-11T04:39:17.556Z,70.10
2018-08-11T04:41:45.968Z,69.90
2018-08-11T04:44:17.139Z,69.60
2018-08-11T04:46:45.685Z,69.90
2018-08-11T04:49:14.675Z,70.40
2018-08-11T04:51:49.468Z,70.30
2018-08-11T04:54:17.957Z,70.10
2018-08-11T04:56:46.358Z,69.60
2018-08-11T04:59:14.853Z,69.70
2018-08-11T05:01:43.260Z,69.70
2018-08-11T05:04:11.697Z,69.40
2018-08-11T05:06:41.038Z,69.40
2018-08-11T05:09:10.160Z,68.70
2018-08-11T05:11:38.580Z,68.30
2018-08-11T05:14:07.184Z,68.40
2018-08-11T05:16:35.608Z,68.10
2018-08-11T05:19:04.106Z,67.60
2018-08-11T05:21:32.618Z,67.60
2018-08-11T05:24:01.142Z,68.00
2018-08-11T05:26:29.642Z,67.00
2018-08-11T05:28:59.107Z,67.10
2018-08-11T05:31:27.538Z,67.20
2018-08-11T05:33:55.957Z,67.00
2018-08-11T05:36:24.417Z,66.60
2018-08-11T05:38:52.855Z,66.80
2018-08-11T05:41:21.793Z,66.40
2018-08-11T05:43:50.277Z,66.00
2018-08-11T05:46:24.355Z,66.00
2018-08-11T05:48:52.707Z,65.80
2018-08-11T05:51:21.745Z,65.80
2018-08-11T05:53:50.208Z,66.30
2018-08-11T05:56:18.703Z,65.80
2018-08-11T05:58:47.973Z,65.40
2018-08-11T06:01:16.446Z,65.50
2018-08-11T06:03:44.927Z,65.40
2018-08-11T06:06:13.424Z,66.20
2018-08-11T06:08:41.918Z,66.10
2018-08-11T06:11:10.331Z,65.50
2018-08-11T06:13:38.835Z,65.50
2018-08-11T06:16:07.319Z,65.50
2018-08-11T06:18:36.668Z,65.00
2018-08-11T06:21:05.267Z,64.70
2018-08-11T06:23:33.984Z,64.60
2018-08-11T06:26:02.419Z,64.50
2018-08-11T06:28:30.905Z,64.40
2018-08-11T06:31:03.127Z,64.00
2018-08-11T06:33:31.597Z,67.00
2018-08-11T06:36:00.089Z,71.20
2018-08-11T06:38:28.512Z,69.70
2018-08-11T06:40:57.062Z,70.00
2018-08-11T06:43:28.304Z,69.40
2018-08-11T06:45:56.743Z,69.50
2018-08-11T06:48:25.131Z,68.90
2018-08-11T06:50:53.663Z,69.20
2018-08-11T06:53:23.729Z,69.00
2018-08-11T06:55:52.958Z,68.90
2018-08-11T06:58:21.303Z,69.40
2018-08-11T07:00:49.696Z,68.10
2018-08-11T07:03:18.121Z,67.50
2018-08-11T07:05:46.628Z,67.50
2018-08-11T07:08:15.098Z,67.00
2018-08-11T07:10:43.694Z,66.00
2018-08-11T07:13:12.735Z,67.00
2018-08-11T07:15:41.095Z,66.90
2018-08-11T07:18:09.626Z,66.80
2018-08-11T07:20:38.033Z,66.60
2018-08-11T07:23:06.552Z,66.80
2018-08-11T07:25:34.993Z,66.00
2018-08-11T07:28:03.414Z,66.00
2018-08-11T07:30:31.796Z,65.80
2018-08-11T07:33:00.183Z,66.00
2018-08-11T07:35:28.618Z,65.30
2018-08-11T07:37:57.117Z,64.40
2018-08-11T07:40:25.637Z,64.90
2018-08-11T07:42:54.135Z,65.00
2018-08-11T07:45:22.579Z,65.50
2018-08-11T07:47:51.499Z,65.20
2018-08-11T07:50:19.943Z,65.30
2018-08-11T07:52:48.452Z,65.00
2018-08-11T07:55:16.960Z,65.20
2018-08-11T07:57:45.368Z,64.80
2018-08-11T08:00:13.964Z,65.30
2018-08-11T08:02:42.599Z,64.40
2018-08-11T08:05:11.030Z,64.00
2018-08-11T08:07:39.560Z,63.80
2018-08-11T08:10:08.172Z,62.80
2018-08-11T08:12:36.563Z,63.10
2018-08-11T08:15:05.460Z,62.80
2018-08-11T08:17:40.222Z,61.50
2018-08-11T08:20:08.661Z,61.90
2018-08-11T08:22:37.187Z,60.90
2018-08-11T08:25:06.108Z,60.80
2018-08-11T08:27:34.605Z,61.20
2018-08-11T08:30:03.172Z,60.40
2018-08-11T08:32:31.589Z,60.10
2018-08-11T08:34:59.945Z,60.10
2018-08-11T08:37:28.343Z,58.20
2018-08-11T08:39:56.803Z,58.10
2018-08-11T08:42:25.412Z,57.60
2018-08-11T08:44:53.815Z,57.70
2018-08-11T08:47:22.237Z,57.20
2018-08-11T08:49:50.616Z,58.40
2018-08-11T08:52:19.017Z,58.00
2018-08-11T08:54:47.852Z,56.80
2018-08-11T08:57:16.223Z,54.50
2018-08-11T08:59:44.703Z,54.40
2018-08-11T09:02:19.739Z,55.10
2018-08-11T09:04:48.185Z,54.90
2018-08-11T09:07:16.595Z,54.80
2018-08-11T09:09:46.021Z,54.90
2018-08-11T09:12:14.392Z,52.20
2018-08-11T09:14:42.761Z,51.50
2018-08-11T09:17:11.312Z,51.20
2018-08-11T09:19:39.705Z,51.40
2018-08-11T09:22:08.195Z,52.20
2018-08-11T09:24:36.633Z,52.10
2018-08-11T09:27:05.121Z,51.50
2018-08-11T09:29:33.582Z,51.00
2018-08-11T09:32:02.004Z,48.90
2018-08-11T09:34:30.406Z,46.20
2018-08-11T09:36:58.904Z,46.90
2018-08-11T09:39:27.341Z,47.80
2018-08-11T09:41:55.830Z,48.00
2018-08-11T09:44:25.071Z,48.50
2018-08-11T09:46:53.584Z,48.60
2018-08-11T09:49:22.015Z,46.80
2018-08-11T09:51:50.660Z,46.20
2018-08-11T09:54:19.659Z,47.10
2018-08-11T09:56:48.032Z,46.60
2018-08-11T09:59:16.483Z,47.60
2018-08-11T10:01:46.815Z,47.00
2018-08-11T10:04:15.847Z,45.50
2018-08-11T10:06:44.298Z,45.30
2018-08-11T10:09:13.330Z,45.50
2018-08-11T10:11:41.788Z,45.70
2018-08-11T10:14:10.209Z,46.00
2018-08-11T10:16:38.596Z,46.10
2018-08-11T10:19:07.062Z,45.30
2018-08-11T10:21:35.513Z,45.90
2018-08-11T10:24:03.989Z,46.50
2018-08-11T10:26:32.393Z,47.20
2018-08-11T10:29:00.869Z,47.70
2018-08-11T10:31:29.315Z,48.60
2018-08-11T10:33:57.726Z,47.90
2018-08-11T10:36:26.611Z,46.80
2018-08-11T10:38:55.094Z,45.20
2018-08-11T10:41:23.519Z,44.60
2018-08-11T10:43:51.932Z,44.60
2018-08-11T10:46:20.362Z,43.70
2018-08-11T10:48:48.888Z,42.20
2018-08-11T10:51:17.333Z,41.80
2018-08-11T10:53:45.721Z,41.20
2018-08-11T10:56:14.523Z,40.90
2018-08-11T10:58:43.124Z,40.80
2018-08-11T11:01:11.484Z,40.40
2018-08-11T11:03:40.052Z,38.70
2018-08-11T11:06:08.550Z,39.30
2018-08-11T11:08:38.066Z,39.60
2018-08-11T11:11:06.424Z,41.50
2018-08-11T11:13:34.962Z,39.40
2018-08-11T11:16:03.355Z,40.00
2018-08-11T11:18:31.840Z,39.50
2018-08-11T11:21:00.244Z,39.00
2018-08-11T11:23:28.678Z,37.90
2018-08-11T11:25:57.173Z,38.10
2018-08-11T11:28:25.589Z,38.20
2018-08-11T11:30:54.026Z,37.70
2018-08-11T11:33:22.576Z,39.70
2018-08-11T11:35:50.993Z,40.90
2018-08-11T11:38:19.440Z,41.80
2018-08-11T11:40:47.934Z,42.00
2018-08-11T11:43:16.344Z,41.40
2018-08-11T11:45:47.751Z,41.40
2018-08-11T11:48:16.122Z,41.00
2018-08-11T11:50:44.529Z,40.10
2018-08-11T11:53:12.955Z,39.00
2018-08-11T11:55:41.581Z,39.00
2018-08-11T11:58:09.988Z,38.20
2018-08-11T12:00:38.431Z,37.70
2018-08-11T12:03:06.838Z,35.70
2018-08-11T12:05:41.598Z,32.50
2018-08-11T12:08:10.025Z,28.70
2018-08-11T12:10:38.393Z,30.00
2018-08-11T12:13:07.027Z,27.70
2018-08-11T12:15:35.376Z,26.20
2018-08-11T12:18:03.837Z,25.50
2018-08-11T12:20:32.282Z,24.30
2018-08-11T12:23:06.916Z,26.30
2018-08-11T12:25:35.359Z,26.20
2018-08-11T12:28:03.857Z,28.10
2018-08-11T12:30:32.356Z,30.90
2018-08-11T12:33:00.759Z,32.50
2018-08-11T12:35:29.271Z,33.20
2018-08-11T12:37:57.773Z,31.40
2018-08-11T12:40:26.139Z,28.80
2018-08-11T12:42:54.564Z,27.20
2018-08-11T12:45:22.967Z,25.10
2018-08-11T12:47:51.359Z,25.90
2018-08-11T12:50:19.809Z,27.10
2018-08-11T12:52:48.182Z,27.30
2018-08-11T12:55:16.607Z,28.20
2018-08-11T12:57:45.146Z,27.30
2018-08-11T13:00:14.287Z,26.40
2018-08-11T13:02:43.578Z,25.90
2018-08-11T13:05:11.989Z,28.80
2018-08-11T13:07:42.505Z,30.80
2018-08-11T13:10:12.116Z,31.90
2018-08-11T13:12:40.486Z,32.80
2018-08-11T13:15:09.085Z,32.30
2018-08-11T13:17:37.479Z,31.70
2018-08-11T13:20:06.504Z,31.60
2018-08-11T13:22:35.064Z,31.90
2018-08-11T13:25:03.638Z,31.60
2018-08-11T13:27:32.706Z,32.60
2018-08-11T13:30:01.100Z,31.20
2018-08-11T13:32:29.852Z,32.20
2018-08-11T13:34:58.486Z,33.60
2018-08-11T13:37:26.970Z,34.60
2018-08-11T13:39:55.430Z,36.70
2018-08-11T13:42:23.926Z,34.90
2018-08-11T13:44:52.380Z,34.30
2018-08-11T13:47:20.906Z,34.80
2018-08-11T13:49:49.637Z,32.20
2018-08-11T13:52:18.006Z,30.70
2018-08-11T13:54:46.415Z,31.90
2018-08-11T13:57:14.811Z,33.10
2018-08-11T13:59:43.297Z,33.70
2018-08-11T14:02:11.744Z,32.80
2018-08-11T14:04:40.172Z,31.30
2018-08-11T14:07:08.624Z,29.00
2018-08-11T14:09:37.271Z,28.20
2018-08-11T14:12:05.729Z,28.90
2018-08-11T14:14:34.166Z,29.00
2018-08-11T14:17:02.600Z,30.00
2018-08-11T14:19:31.051Z,30.00
2018-08-11T14:21:59.608Z,31.50
2018-08-11T14:24:28.008Z,32.80
2018-08-11T14:26:56.408Z,32.30
2018-08-11T14:29:24.790Z,32.20
2018-08-11T14:31:53.243Z,32.40
2018-08-11T14:34:21.693Z,32.90
2018-08-11T14:36:50.098Z,32.40
2018-08-11T14:39:18.528Z,33.00
2018-08-11T14:41:46.989Z,33.10
2018-08-11T14:44:15.536Z,33.90
2018-08-11T14:46:44.040Z,34.10
2018-08-11T14:49:12.396Z,34.50
2018-08-11T14:51:40.937Z,34.20
2018-08-11T14:54:09.421Z,33.50
2018-08-11T14:56:37.898Z,33.00
2018-08-11T14:59:06.296Z,32.50
2018-08-11T15:01:34.819Z,31.60
2018-08-11T15:04:03.239Z,31.40
2018-08-11T15:06:31.717Z,30.70
2018-08-11T15:09:00.161Z,30.60
2018-08-11T15:11:28.528Z,29.90
2018-08-11T15:13:57.041Z,30.30
2018-08-11T15:16:25.684Z,30.20
2018-08-11T15:18:53.967Z,30.50
2018-08-11T15:21:22.445Z,30.80
2018-08-11T15:23:50.876Z,31.50
2018-08-11T15:26:19.304Z,32.80
2018-08-11T15:28:47.792Z,33.30
2018-08-11T15:31:16.205Z,32.90
2018-08-11T15:33:44.771Z,32.90
2018-08-11T15:36:13.245Z,32.90
2018-08-11T15:38:41.729Z,33.90
2018-08-11T15:41:10.130Z,33.90
2018-08-11T15:43:38.555Z,33.20
2018-08-11T15:46:07.040Z,32.60
2018-08-11T15:48:35.477Z,33.20
2018-08-11T15:51:34.740Z,33.00
2018-08-11T15:54:03.213Z,32.70
2018-08-11T15:56:31.619Z,32.50
2018-08-11T15:59:00.000Z,32.90
2018-08-11T16:01:28.447Z,33.00
2018-08-11T16:03:56.913Z,33.70
2018-08-11T16:06:25.379Z,33.40
2018-08-11T16:08:53.765Z,33.90
2018-08-11T16:11:22.231Z,33.60
2018-08-11T16:13:50.712Z,33.50
2018-08-11T16:16:19.109Z,33.80
2018-08-11T16:18:47.542Z,34.40
2018-08-11T16:21:17.115Z,34.00
2018-08-11T16:23:45.639Z,33.80
2018-08-11T16:26:14.063Z,33.60
2018-08-11T16:28:42.464Z,34.10
2018-08-11T16:31:11.122Z,35.30
2018-08-11T16:33:39.567Z,35.40
2018-08-11T16:36:07.910Z,36.00
2018-08-11T16:38:36.301Z,36.60
2018-08-11T16:41:04.797Z,37.00
2018-08-11T16:43:33.296Z,37.10
2018-08-11T16:46:02.688Z,36.40
2018-08-11T16:48:31.665Z,36.70
2018-08-11T16:51:00.459Z,36.30
2018-08-11T16:53:32.133Z,36.40
2018-08-11T16:56:00.547Z,36.60
2018-08-11T16:58:28.969Z,35.70
2018-08-11T17:00:58.419Z,34.10
2018-08-11T17:03:26.932Z,33.60
2018-08-11T17:06:07.055Z,32.50
2018-08-11T17:08:36.084Z,31.40
2018-08-11T17:11:04.565Z,31.20
2018-08-11T17:13:33.026Z,31.40
2018-08-11T17:16:01.400Z,31.60
2018-08-11T17:18:29.987Z,32.10
2018-08-11T17:20:58.651Z,33.30
2018-08-11T17:23:27.398Z,32.80
2018-08-11T17:25:56.995Z,32.90
2018-08-11T17:28:25.565Z,33.00
2018-08-11T17:30:53.976Z,32.70
2018-08-11T17:33:22.447Z,33.00
2018-08-11T17:35:50.891Z,33.80
2018-08-11T17:38:19.323Z,34.60
2018-08-11T17:40:47.690Z,34.90
2018-08-11T17:43:16.109Z,35.80
2018-08-11T17:45:44.624Z,36.60
2018-08-11T17:48:13.111Z,37.40
2018-08-11T17:50:41.509Z,37.30
2018-08-11T17:53:09.956Z,38.00
2018-08-11T17:55:38.413Z,38.50
2018-08-11T17:58:06.807Z,38.50
2018-08-11T18:00:35.717Z,38.70
2018-08-11T18:03:04.172Z,38.90
2018-08-11T18:05:32.569Z,39.30
2018-08-11T18:08:01.064Z,39.30
2018-08-11T18:10:29.533Z,39.70
2018-08-11T18:12:57.967Z,39.60
2018-08-11T18:15:26.502Z,39.40
2018-08-11T18:17:55.012Z,39.70
2018-08-11T18:20:23.505Z,40.10
2018-08-11T18:22:51.926Z,40.10
2018-08-11T18:25:20.354Z,40.00
2018-08-11T18:27:48.813Z,40.10
2018-08-11T18:30:17.286Z,40.40
2018-08-11T18:32:45.758Z,40.70
2018-08-11T18:35:14.544Z,40.80
2018-08-11T18:37:42.976Z,40.60
2018-08-11T18:40:11.422Z,41.00
2018-08-11T18:42:39.837Z,41.00
2018-08-11T18:45:08.332Z,41.40
2018-08-11T18:47:36.756Z,41.30
2018-08-11T18:50:05.284Z,41.70
2018-08-11T18:52:33.767Z,41.80
2018-08-11T18:55:02.349Z,42.10
2018-08-11T18:57:30.878Z,42.50
2018-08-11T18:59:59.292Z,42.60
2018-08-11T19:02:28.913Z,43.20
2018-08-11T19:04:57.425Z,43.40
2018-08-11T19:07:26.085Z,44.10
2018-08-11T19:09:54.592Z,43.90
2018-08-11T19:12:23.105Z,44.00
2018-08-11T19:14:51.768Z,44.60
2018-08-11T19:22:25.268Z,46.40
2018-08-11T19:24:53.812Z,47.70
2018-08-11T19:27:22.210Z,48.30
2018-08-11T19:29:50.659Z,49.10
2018-08-11T19:32:19.072Z,49.40
2018-08-11T19:34:47.497Z,49.40
2018-08-11T19:37:16.928Z,49.50
2018-08-11T19:39:45.443Z,49.90
2018-08-11T19:42:13.867Z,49.80
2018-08-11T19:44:42.408Z,50.40
2018-08-11T19:47:10.872Z,49.80
2018-08-11T19:49:39.404Z,49.90
2018-08-11T19:52:07.849Z,50.70
2018-08-11T19:54:36.311Z,50.90
2018-08-11T19:57:04.923Z,51.30
2018-08-11T19:59:33.708Z,51.40
2018-08-11T20:02:02.212Z,50.70
2018-08-11T20:04:39.688Z,50.50
2018-08-11T20:07:08.210Z,50.70
2018-08-11T20:09:36.688Z,50.60
2018-08-11T20:12:05.304Z,50.50
2018-08-11T20:14:33.704Z,50.70
2018-08-11T20:17:02.197Z,50.90
2018-08-11T20:19:30.683Z,51.80
2018-08-11T20:22:10.493Z,51.50
2018-08-11T20:24:38.949Z,52.00
2018-08-11T20:27:07.708Z,52.20
2018-08-11T20:29:36.893Z,53.20
2018-08-11T20:32:05.320Z,53.70
2018-08-11T20:34:34.229Z,53.00
2018-08-11T20:37:02.722Z,53.20
2018-08-11T20:39:31.236Z,53.20
2018-08-11T20:41:59.760Z,53.30
2018-08-11T20:44:28.345Z,53.40
2018-08-11T20:46:56.825Z,54.00
2018-08-11T20:49:25.403Z,55.00
2018-08-11T20:51:53.851Z,55.10
2018-08-11T20:54:22.459Z,55.30
2018-08-11T20:56:56.777Z,55.70
2018-08-11T20:59:26.735Z,55.60
2018-08-11T21:01:55.292Z,55.30
2018-08-11T21:04:23.922Z,55.90
2018-08-11T21:06:52.473Z,56.20
2018-08-11T21:09:20.884Z,56.60
2018-08-11T21:11:49.376Z,56.90
2018-08-11T21:14:17.958Z,56.50
2018-08-11T21:22:31.811Z,56.90
2018-08-11T21:25:00.294Z,56.90
2018-08-11T21:27:28.749Z,56.90
2018-08-11T21:29:57.209Z,57.10
2018-08-11T21:32:25.734Z,57.50
2018-08-11T21:34:54.184Z,57.60
2018-08-11T21:37:23.574Z,57.60
2018-08-11T21:39:52.086Z,58.30
2018-08-11T21:42:20.589Z,58.60
2018-08-11T21:44:49.068Z,58.70
2018-08-11T21:47:17.548Z,59.00
2018-08-11T21:49:46.007Z,59.10
2018-08-11T21:52:14.533Z,59.10
2018-08-11T21:54:48.547Z,59.10
2018-08-11T21:57:17.013Z,58.90
2018-08-11T21:59:45.552Z,58.60
2018-08-11T22:02:13.974Z,58.70
2018-08-11T22:04:42.420Z,59.00
2018-08-11T22:07:13.877Z,57.40
2018-08-11T22:09:42.445Z,57.70
2018-08-11T22:12:18.121Z,57.80
2018-08-11T22:14:49.338Z,58.10
2018-08-11T22:17:17.829Z,58.40
2018-08-11T22:19:46.448Z,59.00
2018-08-11T22:22:14.972Z,59.40
2018-08-11T22:24:43.482Z,59.80
2018-08-11T22:27:12.741Z,59.60
2018-08-11T22:29:41.256Z,59.00
2018-08-11T22:32:09.760Z,58.90
2018-08-11T22:34:38.605Z,58.70
2018-08-11T22:37:07.103Z,58.50
2018-08-11T22:39:35.543Z,58.60
2018-08-11T22:42:04.000Z,58.60
2018-08-11T22:44:32.460Z,58.80
2018-08-11T22:47:00.919Z,58.70
2018-08-11T22:49:29.341Z,58.90
2018-08-11T22:51:57.835Z,58.90
2018-08-11T22:54:26.261Z,59.10
2018-08-11T22:56:54.708Z,59.00
2018-08-11T22:59:23.131Z,59.00
2018-08-11T23:01:52.661Z,60.10
2018-08-11T23:04:21.221Z,60.80
2018-08-11T23:06:49.713Z,61.10
2018-08-11T23:09:18.138Z,61.30
2018-08-11T23:11:46.636Z,62.20
2018-08-11T23:14:15.096Z,62.50
2018-08-11T23:16:43.655Z,63.00
2018-08-11T23:19:12.143Z,62.90
2018-08-11T23:21:40.579Z,63.60
2018-08-11T23:24:09.418Z,63.50
2018-08-11T23:26:37.958Z,63.20
2018-08-11T23:29:06.591Z,64.20
2018-08-11T23:31:35.068Z,63.60
2018-08-11T23:34:03.555Z,63.80
2018-08-11T23:36:32.017Z,64.50
2018-08-11T23:39:00.502Z,64.20
2018-08-11T23:41:29.043Z,63.30
2018-08-11T23:43:57.507Z,63.60
2018-08-11T23:46:28.602Z,63.90
2018-08-11T23:48:59.165Z,64.20
2018-08-11T23:51:27.922Z,65.10
2018-08-11T23:53:56.587Z,65.60
2018-08-11T23:56:27.098Z,65.20
2018-08-11T23:58:55.785Z,65.20
